Time;durP1;ratioP1;P1;durP2;ratioP2;P2;SDS_P1;SDS_P2;PMS_P1;PMS_P2;Temp;Humidity;BMP_temperature;BMP_pressure;BME280_temperature;BME280_humidity;BME280_pressure;Samples;Min_cycle;Max_cycle;Signal;HPM_P1;HPM_P2
2022/10/30 00:02:04;;;;;;;;;10.75;8.50;;;;;22.74;49.81;101183.75;4998689;28;45878;-55
2022/10/30 00:04:30;;;;;;;;;13.75;11.25;;;;;22.74;49.59;101182.88;4998245;28;45274;-52
2022/10/30 00:06:55;;;;;;;;;11.75;11.75;;;;;22.74;50.06;101191.69;4998511;28;45344;-57
2022/10/30 00:09:20;;;;;;;;;9.00;6.25;;;;;22.75;49.60;101195.16;4998727;28;45698;-59
2022/10/30 00:11:46;;;;;;;;;11.00;10.00;;;;;22.74;49.95;101189.03;4998148;28;47572;-58
2022/10/30 00:14:12;;;;;;;;;11.50;11.00;;;;;22.74;49.88;101191.69;5012798;28;45210;-57
2022/10/30 00:16:38;;;;;;;;;10.50;9.50;;;;;22.73;49.71;101187.34;5007673;28;45373;-56
2022/10/30 00:19:03;;;;;;;;;14.25;10.25;;;;;22.73;49.73;101182.06;4998249;28;45571;-54
2022/10/30 00:21:29;;;;;;;;;12.25;10.75;;;;;22.73;49.71;101182.06;4997250;28;48167;-55
2022/10/30 00:23:54;;;;;;;;;10.00;9.00;;;;;22.73;49.45;101176.75;5010513;28;45341;-59
2022/10/30 00:26:21;;;;;;;;;11.00;11.00;;;;;22.73;50.05;101174.13;5020103;28;45696;-59
2022/10/30 00:28:51;;;;;;;;;13.75;9.50;;;;;22.73;49.83;101181.19;5020521;28;44805;-56
2022/10/30 00:31:16;;;;;;;;;10.00;10.00;;;;;22.73;49.75;101171.47;5019500;28;45131;-60
2022/10/30 00:33:42;;;;;;;;;11.00;10.75;;;;;22.73;49.62;101170.63;5019178;28;47245;-46
2022/10/30 00:36:07;;;;;;;;;11.25;9.75;;;;;22.73;49.76;101170.63;5021493;28;44706;-49
2022/10/30 00:38:33;;;;;;;;;11.50;10.75;;;;;22.73;50.07;101179.41;5008899;28;45341;-55
2022/10/30 00:40:58;;;;;;;;;10.25;9.25;;;;;22.73;50.11;101176.75;5013415;28;57420;-58
2022/10/30 00:43:34;;;;;;;;;12.00;10.25;;;;;22.73;49.81;101170.63;5019095;28;51051;-58
2022/10/30 00:46:12;;;;;;;;;9.00;9.00;;;;;22.72;49.95;101169.78;5013194;28;45439;-60
2022/10/30 00:48:38;;;;;;;;;11.00;10.50;;;;;22.73;49.85;101165.31;5000725;28;45480;-56
2022/10/30 00:51:10;;;;;;;;;10.50;10.00;;;;;22.73;50.03;101181.19;5007383;28;46005;-51
2022/10/30 00:53:35;;;;;;;;;8.00;8.00;;;;;22.73;50.05;101200.53;5006832;28;45366;-54
2022/10/30 00:56:05;;;;;;;;;10.75;9.50;;;;;22.74;49.74;101198.75;4998227;28;45439;-55
2022/10/30 00:58:37;;;;;;;;;11.00;10.00;;;;;22.72;49.66;101193.56;4998890;28;45234;-55
2022/10/30 01:01:06;;;;;;;;;9.25;9.25;;;;;22.73;49.85;101200.53;4996506;28;47195;-55
2022/10/30 01:03:34;;;;;;;;;9.25;9.25;;;;;22.73;50.09;101199.69;5000488;28;45403;-59
2022/10/30 01:06:05;;;;;;;;;11.00;9.75;;;;;22.73;49.79;101194.41;5011188;28;45402;-56
2022/10/30 01:08:32;;;;;;;;;13.00;10.25;;;;;22.72;49.79;101201.47;5001004;28;45249;-58
2022/10/30 01:10:59;;;;;;;;;11.50;10.50;;;;;22.72;49.96;101201.47;5004301;28;46253;-56
2022/10/30 01:13:26;;;;;;;;;11.00;9.00;;;;;22.72;49.91;101206.75;5003840;28;45805;-59
2022/10/30 01:16:02;;;;;;;;;12.00;8.75;;;;;22.72;50.06;101201.47;4997865;28;45362;-56
2022/10/30 01:18:39;;;;;;;;;13.75;10.75;;;;;22.72;49.79;101206.75;4996112;28;45408;-59
2022/10/30 01:21:49;;;;;;;;;11.25;10.25;;;;;22.72;49.87;101201.47;4997338;28;46386;-54
2022/10/30 01:24:29;;;;;;;;;11.50;9.75;;;;;22.72;49.68;101205.91;4958817;28;45931;-56
2022/10/30 01:27:03;;;;;;;;;10.25;9.75;;;;;22.72;49.80;101205.91;4988875;28;45303;-57
2022/10/30 01:30:07;;;;;;;;;11.00;9.50;;;;;22.71;50.03;101207.72;5015044;28;45382;-58
2022/10/30 01:32:53;;;;;;;;;9.50;8.75;;;;;22.71;49.71;101210.34;5011226;28;45193;-55
2022/10/30 01:35:37;;;;;;;;;9.50;9.00;;;;;22.71;49.80;101207.72;5001428;28;45893;-56
2022/10/30 01:38:49;;;;;;;;;12.75;10.50;;;;;22.70;49.63;101206.00;5000792;28;45462;-52
2022/10/30 01:41:14;;;;;;;;;12.00;10.00;;;;;22.69;49.93;101202.53;4983679;28;45518;-51
2022/10/30 01:43:42;;;;;;;;;11.00;9.75;;;;;22.70;50.16;101203.34;5000002;28;46120;-48
2022/10/30 01:46:25;;;;;;;;;12.25;10.50;;;;;22.70;49.84;101195.44;5000431;28;45815;-50
2022/10/30 01:49:14;;;;;;;;;12.00;10.00;;;;;22.70;50.01;101198.06;5006222;28;45448;-51
2022/10/30 01:52:01;;;;;;;;;9.25;9.25;;;;;22.69;49.98;101201.66;5006757;28;45311;-55
2022/10/30 01:54:45;;;;;;;;;9.00;9.00;;;;;22.69;50.04;101196.38;5001354;28;46366;-48
2022/10/30 01:57:39;;;;;;;;;10.00;9.00;;;;;22.69;49.88;101196.38;5000229;28;45748;-57
2022/10/30 02:00:15;;;;;;;;;12.25;8.25;;;;;22.69;50.08;101196.38;5000552;28;45356;-54
2022/10/30 02:02:41;;;;;;;;;10.75;8.75;;;;;22.69;50.01;101185.81;5000452;28;45409;-56
2022/10/30 02:05:08;;;;;;;;;12.50;11.00;;;;;22.68;50.02;101170.88;5000257;28;45862;-53
2022/10/30 02:07:35;;;;;;;;;11.00;10.00;;;;;22.69;49.76;101167.31;5000583;28;45365;-54
2022/10/30 02:10:00;;;;;;;;;10.50;10.50;;;;;22.68;50.03;101162.97;5000905;28;45320;-54
2022/10/30 02:12:26;;;;;;;;;11.00;10.75;;;;;22.69;49.67;101172.59;5000474;28;45324;-55
2022/10/30 02:14:56;;;;;;;;;9.00;9.00;;;;;22.68;50.10;101178.81;5001254;28;47341;-54
2022/10/30 02:17:23;;;;;;;;;10.00;10.00;;;;;22.68;49.61;101169.13;5005563;28;45133;-51
2022/10/30 02:19:49;;;;;;;;;10.25;8.75;;;;;22.68;50.03;101165.59;5005127;28;45372;-53
2022/10/30 02:22:16;;;;;;;;;11.25;9.00;;;;;22.66;49.89;101155.13;5005762;28;45413;-52
2022/10/30 02:24:42;;;;;;;;;9.50;9.50;;;;;22.68;49.83;101168.25;5003549;28;45580;-55
2022/10/30 02:27:07;;;;;;;;;8.50;7.75;;;;;22.66;49.67;101167.47;5002723;28;45726;-57
2022/10/30 02:29:33;;;;;;;;;9.75;9.75;;;;;22.67;49.96;101171.81;5009123;28;45334;-57
2022/10/30 02:31:58;;;;;;;;;10.00;9.67;;;;;22.67;49.82;101172.69;5007247;28;51532;-57
2022/10/30 02:34:23;;;;;;;;;12.75;9.50;;;;;22.68;49.94;101171.75;5010712;28;56773;-58
2022/10/30 02:36:49;;;;;;;;;12.00;10.00;;;;;22.67;49.63;101164.75;5012967;28;44652;-55
2022/10/30 02:39:14;;;;;;;;;10.00;9.00;;;;;22.68;50.10;101161.19;5003465;28;45420;-58
2022/10/30 02:41:39;;;;;;;;;7.50;7.50;;;;;22.68;49.80;101162.97;4998448;28;45281;-46
2022/10/30 02:44:05;;;;;;;;;12.00;9.00;;;;;22.67;49.96;101162.13;4999046;28;67431;-55
2022/10/30 02:46:31;;;;;;;;;10.50;9.50;;;;;22.68;49.66;101168.25;4999484;28;45328;-55
2022/10/30 02:48:56;;;;;;;;;11.50;10.00;;;;;22.68;49.80;101162.97;4999119;28;45349;-59
2022/10/30 02:51:22;;;;;;;;;11.00;10.25;;;;;22.68;49.76;101162.97;4998639;28;45446;-59
2022/10/30 02:53:47;;;;;;;;;7.50;6.50;;;;;22.68;49.85;101160.31;4998922;28;45601;-54
2022/10/30 02:56:13;;;;;;;;;11.25;8.50;;;;;22.67;50.03;101155.97;4999086;28;53102;-57
2022/10/30 02:58:39;;;;;;;;;10.25;9.75;;;;;22.67;49.82;101156.84;4999904;28;45341;-53
2022/10/30 03:01:13;;;;;;;;;9.00;9.00;;;;;22.67;49.70;101155.97;5000867;28;45394;-54
2022/10/30 03:03:39;;;;;;;;;10.50;8.00;;;;;22.67;49.90;101150.69;5004033;28;47056;-53
2022/10/30 03:06:06;;;;;;;;;10.00;9.00;;;;;22.65;49.65;101147.31;5007438;28;44883;-58
2022/10/30 03:08:32;;;;;;;;;10.50;9.75;;;;;22.67;49.53;101150.69;5010996;28;45425;-55
2022/10/30 03:11:09;;;;;;;;;8.25;7.50;;;;;22.68;49.77;101149.75;5001919;28;45534;-58
2022/10/30 03:13:35;;;;;;;;;9.50;9.50;;;;;22.67;49.90;101150.69;4999428;28;46703;-58
2022/10/30 03:16:02;;;;;;;;;12.00;10.50;;;;;22.67;49.99;101153.34;4998902;28;45201;-54
2022/10/30 03:18:27;;;;;;;;;10.00;10.00;;;;;22.67;49.88;101155.97;4999056;28;45288;-57
2022/10/30 03:20:57;;;;;;;;;12.25;10.00;;;;;22.66;49.99;101149.84;4999577;28;45376;-59
2022/10/30 03:23:23;;;;;;;;;10.50;9.50;;;;;22.66;49.77;101144.56;4998823;28;46245;-56
2022/10/30 03:25:54;;;;;;;;;10.00;10.00;;;;;22.67;49.99;101145.41;4998903;28;45198;-52
2022/10/30 03:28:22;;;;;;;;;6.50;6.25;;;;;22.67;50.04;101142.75;4997958;28;45465;-59
2022/10/30 03:30:48;;;;;;;;;12.50;9.50;;;;;22.66;49.86;101139.28;4999677;28;45533;-50
2022/10/30 03:33:14;;;;;;;;;12.25;9.00;;;;;22.66;50.00;101139.28;4999276;28;46227;-50
2022/10/30 03:35:39;;;;;;;;;9.75;8.75;;;;;22.65;50.03;101134.09;4998778;28;45245;-55
2022/10/30 03:38:04;;;;;;;;;7.50;7.50;;;;;22.65;49.66;101134.94;4998984;28;46077;-54
2022/10/30 03:40:30;;;;;;;;;7.25;7.25;;;;;22.65;49.77;101134.94;4999567;28;45370;-55
2022/10/30 03:42:55;;;;;;;;;10.33;9.00;;;;;22.66;49.77;101127.84;5004772;28;60469;-55
2022/10/30 03:45:20;;;;;;;;;12.00;9.25;;;;;22.66;49.80;101128.72;5004930;28;45324;-56
2022/10/30 03:47:45;;;;;;;;;9.33;9.33;;;;;22.66;50.04;101117.28;4998132;28;53747;-51
2022/10/30 03:50:11;;;;;;;;;12.25;10.00;;;;;22.66;50.03;101122.56;5001251;28;46663;-56
2022/10/30 03:52:36;;;;;;;;;9.75;8.50;;;;;22.66;50.06;101127.84;4999578;28;45597;-51
2022/10/30 03:55:02;;;;;;;;;12.25;10.75;;;;;22.66;50.01;101127.84;5003242;28;45229;-54
2022/10/30 03:57:27;;;;;;;;;11.50;8.25;;;;;22.66;49.64;101131.34;5002844;28;45245;-55
2022/10/30 03:59:52;;;;;;;;;9.50;8.50;;;;;22.66;49.94;101133.13;5003524;28;45205;-56
2022/10/30 04:02:17;;;;;;;;;12.00;8.75;;;;;22.65;49.64;101123.53;4998203;28;57769;-57
2022/10/30 04:04:43;;;;;;;;;11.00;9.75;;;;;22.65;49.81;101115.63;4999031;28;45213;-54
2022/10/30 04:07:08;;;;;;;;;9.00;9.00;;;;;22.65;49.81;101124.38;4998095;28;45368;-53
2022/10/30 04:09:33;;;;;;;;;9.75;7.50;;;;;22.65;49.78;101121.72;4998620;28;45606;-59
2022/10/30 04:11:59;;;;;;;;;9.00;9.00;;;;;22.65;50.00;101113.81;4998587;28;49191;-53
2022/10/30 04:14:24;;;;;;;;;9.00;9.00;;;;;22.64;49.68;101117.38;4997937;28;45342;-58
2022/10/30 04:16:49;;;;;;;;;9.00;7.75;;;;;22.65;49.52;101121.72;4998225;28;45774;-57
2022/10/30 04:19:15;;;;;;;;;7.25;7.25;;;;;22.65;49.96;101123.53;5000934;28;45568;-44
2022/10/30 04:21:42;;;;;;;;;11.25;9.50;;;;;22.65;49.81;101126.19;5005478;28;46492;-55
2022/10/30 04:24:08;;;;;;;;;13.50;8.50;;;;;22.65;49.67;101120.91;5003392;28;45824;-58
2022/10/30 04:26:33;;;;;;;;;10.75;9.00;;;;;22.64;49.66;101108.63;4997954;28;45351;-60
2022/10/30 04:28:58;;;;;;;;;9.75;8.75;;;;;22.64;49.55;101108.63;4998301;28;45575;-57
2022/10/30 04:31:23;;;;;;;;;9.50;9.50;;;;;22.62;49.59;101090.19;5004101;28;45939;-51
2022/10/30 04:33:49;;;;;;;;;12.33;9.67;;;;;22.63;49.88;101101.63;5015649;28;57285;-52
2022/10/30 04:36:16;;;;;;;;;11.00;10.25;;;;;22.64;49.73;101092.78;5012400;28;46136;-59
2022/10/30 04:38:42;;;;;;;;;9.75;9.00;;;;;22.63;49.83;101101.63;5002330;28;45372;-58
2022/10/30 04:41:07;;;;;;;;;11.25;10.00;;;;;22.63;49.56;101091.91;4999255;28;45315;-58
2022/10/30 04:43:32;;;;;;;;;10.00;7.25;;;;;22.62;50.00;101089.38;4998373;28;45296;-56
2022/10/30 04:45:58;;;;;;;;;9.75;9.50;;;;;22.62;49.60;101098.13;4997930;28;49957;-55
2022/10/30 04:48:23;;;;;;;;;11.75;10.75;;;;;22.63;49.75;101093.72;4998158;28;45376;-59
2022/10/30 04:50:48;;;;;;;;;11.50;9.75;;;;;22.63;49.85;101094.56;5005897;28;51004;-59
2022/10/30 04:53:16;;;;;;;;;13.00;10.75;;;;;22.63;49.71;101091.06;5016401;28;45230;-48
2022/10/30 04:55:43;;;;;;;;;12.50;9.75;;;;;22.62;49.62;101103.41;5009627;28;44732;-50
2022/10/30 04:58:09;;;;;;;;;7.75;7.75;;;;;22.62;49.79;101099.94;5005083;28;45630;-60
2022/10/30 05:00:34;;;;;;;;;11.00;10.00;;;;;22.62;49.87;101105.22;5005723;28;45266;-59
2022/10/30 05:03:00;;;;;;;;;10.50;9.25;;;;;22.62;49.69;101097.28;5002757;28;45257;-57
2022/10/30 05:05:27;;;;;;;;;12.25;9.75;;;;;22.62;49.89;101099.94;5003161;28;45432;-53
2022/10/30 05:07:53;;;;;;;;;8.00;8.00;;;;;22.63;49.86;101106.91;5002093;28;45475;-55
2022/10/30 05:10:18;;;;;;;;;10.00;8.25;;;;;22.61;49.56;101104.34;5006639;28;46417;-46
2022/10/30 05:12:44;;;;;;;;;11.00;8.25;;;;;22.62;49.71;101111.34;5009163;28;45399;-54
2022/10/30 05:15:11;;;;;;;;;11.50;9.50;;;;;22.62;49.67;101100.78;5013954;28;45228;-58
2022/10/30 05:17:37;;;;;;;;;9.50;9.50;;;;;22.62;49.56;101092.84;5005455;28;45239;-50
2022/10/30 05:20:04;;;;;;;;;9.50;9.50;;;;;22.62;49.91;101095.50;5001409;28;45326;-54
2022/10/30 05:22:29;;;;;;;;;10.00;9.00;;;;;22.61;49.66;101093.78;5000866;28;45929;-59
2022/10/30 05:24:54;;;;;;;;;12.00;11.00;;;;;22.62;49.99;101092.84;5001770;28;46649;-48
2022/10/30 05:27:19;;;;;;;;;4.00;4.00;;;;;22.61;49.63;101091.16;5004700;28;45300;-56
2022/10/30 05:29:45;;;;;;;;;11.67;10.00;;;;;22.61;49.67;101085.88;5002667;28;63128;-57
2022/10/30 05:32:10;;;;;;;;;9.75;8.00;;;;;22.61;49.41;101082.38;5002200;28;50632;-56
2022/10/30 05:34:36;;;;;;;;;11.00;9.50;;;;;22.62;49.47;101078.81;5001808;28;45254;-58
2022/10/30 05:37:01;;;;;;;;;5.00;4.75;;;;;22.61;49.50;101075.28;5003593;28;45240;-55
2022/10/30 05:39:27;;;;;;;;;13.00;10.50;;;;;22.61;49.74;101071.81;5002772;28;46119;-57
2022/10/30 05:41:52;;;;;;;;;9.75;9.00;;;;;22.60;49.63;101072.75;5000375;28;45352;-54
2022/10/30 05:44:17;;;;;;;;;8.25;8.25;;;;;22.60;49.64;101080.69;5001020;28;45234;-58
2022/10/30 05:46:43;;;;;;;;;9.00;9.00;;;;;22.58;49.18;101082.56;5000928;28;45194;-57
2022/10/30 05:49:08;;;;;;;;;12.50;11.00;;;;;22.53;49.00;101096.03;5001135;28;46588;-58
2022/10/30 05:51:34;;;;;;;;;13.50;10.25;;;;;22.49;49.23;101094.56;5000413;28;45420;-58
2022/10/30 05:53:59;;;;;;;;;11.75;10.00;;;;;22.45;49.39;101090.38;4998962;28;50123;-57
2022/10/30 05:56:24;;;;;;;;;9.50;9.00;;;;;22.41;49.25;101086.22;4999077;28;48302;-56
2022/10/30 05:58:50;;;;;;;;;12.75;9.25;;;;;22.38;49.09;101080.13;4999679;28;46144;-55
2022/10/30 06:01:16;;;;;;;;;10.00;10.00;;;;;22.35;49.26;101080.34;5000917;28;45458;-58
2022/10/30 06:03:42;;;;;;;;;17.00;12.50;;;;;22.31;49.25;101073.53;4999750;28;45373;-52
2022/10/30 06:06:07;;;;;;;;;10.75;8.75;;;;;22.30;49.33;101079.75;4999862;28;45458;-57
2022/10/30 06:08:33;;;;;;;;;9.25;8.50;;;;;22.29;49.33;101083.31;5000412;28;45466;-54
2022/10/30 06:10:58;;;;;;;;;12.00;12.00;;;;;22.28;49.08;101086.06;5000576;28;45265;-53
2022/10/30 06:13:23;;;;;;;;;11.50;10.50;;;;;22.27;49.23;101081.72;5004747;28;45234;-57
2022/10/30 06:15:49;;;;;;;;;12.25;9.00;;;;;22.26;49.32;101082.66;5007616;28;45412;-57
2022/10/30 06:18:14;;;;;;;;;12.25;10.75;;;;;22.26;49.29;101082.66;5005647;28;46310;-58
2022/10/30 06:20:39;;;;;;;;;14.50;9.75;;;;;22.24;49.13;101088.88;4999346;28;45376;-55
2022/10/30 06:23:08;;;;;;;;;9.75;9.75;;;;;22.23;49.43;101092.44;5000072;28;45182;-50
2022/10/30 06:25:35;;;;;;;;;11.50;10.50;;;;;22.20;49.36;101083.88;5000505;28;45403;-51
2022/10/30 06:28:01;;;;;;;;;11.50;10.00;;;;;22.19;49.26;101093.59;5003228;28;46360;-57
2022/10/30 06:30:27;;;;;;;;;9.50;9.25;;;;;22.19;49.40;101090.09;5006966;28;45345;-50
2022/10/30 06:32:57;;;;;;;;;11.00;8.25;;;;;22.18;49.24;101085.75;5000476;28;45433;-52
2022/10/30 06:35:23;;;;;;;;;10.00;9.50;;;;;22.18;49.33;101083.97;5002294;28;45707;-56
2022/10/30 06:37:49;;;;;;;;;12.00;11.25;;;;;22.18;49.10;101091.03;4999924;28;45470;-57
2022/10/30 06:40:15;;;;;;;;;14.00;11.25;;;;;22.17;49.23;101091.97;5003490;28;46190;-55
2022/10/30 06:42:45;;;;;;;;;16.00;13.25;;;;;22.18;49.36;101096.31;5017238;28;45340;-56
2022/10/30 06:45:12;;;;;;;;;12.25;12.25;;;;;22.18;49.21;101101.59;5015261;28;45403;-49
2022/10/30 06:47:38;;;;;;;;;11.25;9.75;;;;;22.17;49.11;101100.75;5018761;28;44993;-48
2022/10/30 06:50:05;;;;;;;;;14.25;10.25;;;;;22.17;49.08;101106.03;5015867;28;45203;-50
2022/10/30 06:52:31;;;;;;;;;12.25;11.50;;;;;22.17;49.14;101110.44;5018913;28;44712;-56
2022/10/30 06:54:56;;;;;;;;;12.00;11.00;;;;;22.18;49.10;101117.41;5016504;28;45317;-52
2022/10/30 06:57:22;;;;;;;;;9.50;9.50;;;;;22.18;48.83;101107.72;5008495;28;45249;-58
2022/10/30 06:59:47;;;;;;;;;14.25;10.50;;;;;22.16;49.17;101109.59;5001467;28;45367;-54
2022/10/30 07:02:12;;;;;;;;;14.75;12.50;;;;;22.15;48.88;101107.91;5002575;28;45356;-55
2022/10/30 07:04:38;;;;;;;;;13.75;10.00;;;;;22.14;49.04;101110.63;5005489;28;45353;-58
2022/10/30 07:07:03;;;;;;;;;13.00;11.33;;;;;22.12;48.99;101108.06;5004010;28;63083;-57
2022/10/30 07:09:29;;;;;;;;;13.50;11.75;;;;;22.05;48.91;101096.19;5005180;28;45426;-54
2022/10/30 07:11:54;;;;;;;;;10.00;10.00;;;;;22.02;49.03;101091.06;5008753;28;45302;-56
2022/10/30 07:14:19;;;;;;;;;9.75;9.75;;;;;22.01;49.17;101094.63;5010626;28;45265;-55
2022/10/30 07:16:45;;;;;;;;;13.00;11.50;;;;;21.99;49.02;101093.91;5000261;28;46136;-59
2022/10/30 07:19:10;;;;;;;;;11.75;11.00;;;;;21.95;48.97;101095.84;4999210;28;45463;-57
2022/10/30 07:21:38;;;;;;;;;11.00;10.25;;;;;21.93;49.11;101095.09;4998824;28;45237;-58
2022/10/30 07:24:03;;;;;;;;;14.00;10.75;;;;;21.92;49.23;101096.88;4999605;28;45446;-55
2022/10/30 07:26:29;;;;;;;;;12.25;10.00;;;;;21.92;49.30;101086.31;5009536;28;45522;-57
2022/10/30 07:28:54;;;;;;;;;11.25;11.25;;;;;21.93;49.13;101082.75;5010351;28;60947;-56
2022/10/30 07:31:19;;;;;;;;;12.25;10.25;;;;;21.90;49.24;101077.63;5002146;28;56234;-51
2022/10/30 07:33:45;;;;;;;;;12.00;10.50;;;;;21.87;49.17;101085.75;5002198;28;45207;-60
2022/10/30 07:36:11;;;;;;;;;12.25;11.00;;;;;21.87;49.40;101093.66;4999773;28;45564;-55
2022/10/30 07:38:38;;;;;;;;;12.00;10.75;;;;;21.89;49.44;101102.31;4998639;28;45299;-56
2022/10/30 07:41:04;;;;;;;;;12.25;10.75;;;;;21.92;49.27;101106.59;4998521;28;57983;-51
2022/10/30 07:43:29;;;;;;;;;12.75;11.25;;;;;21.92;49.20;101096.88;4998968;28;45273;-59
2022/10/30 07:45:55;;;;;;;;;12.25;11.75;;;;;21.91;49.17;101095.16;4999489;28;45300;-57
2022/10/30 07:48:21;;;;;;;;;14.25;10.25;;;;;21.91;49.16;101102.25;4998707;28;45760;-57
2022/10/30 07:50:46;;;;;;;;;12.00;11.00;;;;;21.92;49.23;101099.50;4998919;28;45300;-48
2022/10/30 07:53:11;;;;;;;;;11.00;10.25;;;;;21.90;48.87;101093.47;4999237;28;45392;-54
2022/10/30 07:55:36;;;;;;;;;13.75;11.00;;;;;21.88;49.03;101089.22;4999358;28;46316;-53
2022/10/30 07:58:02;;;;;;;;;11.67;11.00;;;;;21.86;49.23;101094.59;5001451;28;58909;-55
2022/10/30 08:00:27;;;;;;;;;14.00;12.00;;;;;21.84;49.03;101104.38;5006448;28;44719;-58
2022/10/30 08:02:55;;;;;;;;;10.75;10.25;;;;;21.84;49.30;101099.09;5019001;28;45142;-53
2022/10/30 08:05:21;;;;;;;;;16.00;12.75;;;;;21.81;49.23;101099.28;5021445;28;45544;-54
2022/10/30 08:07:47;;;;;;;;;12.00;11.50;;;;;21.80;48.99;101110.75;5019065;28;44648;-55
2022/10/30 08:10:12;;;;;;;;;14.00;9.50;;;;;21.79;49.24;101109.06;5014553;28;45311;-58
2022/10/30 08:12:40;;;;;;;;;13.50;10.25;;;;;21.78;49.15;101117.91;5009136;28;45873;-57
2022/10/30 08:15:07;;;;;;;;;13.00;9.75;;;;;21.78;49.40;101120.53;5010090;28;47311;-58
2022/10/30 08:17:32;;;;;;;;;14.00;10.00;;;;;21.77;49.03;101129.44;5010507;28;45651;-47
2022/10/30 08:19:58;;;;;;;;;11.25;8.25;;;;;21.76;49.34;101138.28;5016732;28;44714;-58
2022/10/30 08:22:24;;;;;;;;;10.25;10.00;;;;;21.77;49.25;101155.81;5010845;28;45289;-56
2022/10/30 08:24:49;;;;;;;;;14.00;10.50;;;;;21.78;49.37;101150.44;5010613;28;46626;-51
2022/10/30 08:27:14;;;;;;;;;10.75;10.50;;;;;21.79;49.34;101153.91;5019221;28;44763;-52
2022/10/30 08:29:43;;;;;;;;;5.00;3.75;;;;;21.80;49.43;101150.34;5021399;28;44727;-50
2022/10/30 08:32:08;;;;;;;;;13.00;10.25;;;;;21.81;49.11;101161.75;5002352;28;45551;-53
2022/10/30 08:34:34;;;;;;;;;13.25;11.00;;;;;21.83;49.09;101167.81;4997413;28;46058;-55
2022/10/30 08:36:59;;;;;;;;;11.00;9.25;;;;;21.82;49.20;101177.50;5001102;28;45543;-53
2022/10/30 08:39:25;;;;;;;;;11.75;9.00;;;;;21.82;49.12;101168.75;5000171;28;45345;-51
2022/10/30 08:41:50;;;;;;;;;13.00;12.00;;;;;21.82;48.46;101158.19;5002257;28;45205;-49
2022/10/30 08:44:15;;;;;;;;;8.75;6.75;;;;;21.82;49.44;101151.09;5005496;28;46406;-52
2022/10/30 08:46:43;;;;;;;;;12.50;11.00;;;;;21.84;49.14;101161.56;5002374;28;45155;-59
2022/10/30 08:49:09;;;;;;;;;15.75;11.00;;;;;21.85;49.08;101171.19;5010046;28;56071;-56
2022/10/30 08:51:34;;;;;;;;;11.25;10.25;;;;;21.85;49.03;101174.69;5005207;28;45332;-58
2022/10/30 08:54:00;;;;;;;;;12.75;10.25;;;;;21.87;48.83;101166.69;5003321;28;47698;-58
2022/10/30 08:56:26;;;;;;;;;12.00;9.25;;;;;21.89;48.59;101160.38;5008110;28;45496;-58
2022/10/30 08:58:51;;;;;;;;;12.75;11.25;;;;;21.89;48.63;101152.44;4999006;28;45454;-57
2022/10/30 09:01:18;;;;;;;;;12.50;12.50;;;;;21.90;48.86;101151.53;4997592;28;45405;-50
2022/10/30 09:03:44;;;;;;;;;11.25;10.00;;;;;21.93;48.56;101158.44;4996967;28;46095;-57
2022/10/30 09:06:10;;;;;;;;;10.75;9.75;;;;;21.93;48.71;101159.28;4997394;28;45831;-53
2022/10/30 09:08:35;;;;;;;;;10.00;8.50;;;;;21.96;48.75;101157.41;4997613;28;45309;-56
2022/10/30 09:11:01;;;;;;;;;12.75;9.25;;;;;21.96;48.32;101157.41;4997912;28;45193;-51
2022/10/30 09:13:26;;;;;;;;;12.00;10.75;;;;;21.97;48.63;101173.16;5000466;28;46600;-50
2022/10/30 09:15:52;;;;;;;;;10.00;9.00;;;;;21.98;48.36;101164.28;5007813;28;45296;-55
2022/10/30 09:18:18;;;;;;;;;12.00;11.00;;;;;22.00;48.55;101156.28;4999639;28;44730;-57
2022/10/30 09:20:43;;;;;;;;;12.50;12.25;;;;;22.01;48.44;101173.81;4998424;28;45450;-58
2022/10/30 09:23:09;;;;;;;;;15.25;11.00;;;;;22.00;48.32;101177.38;5001897;28;46967;-54
2022/10/30 09:25:34;;;;;;;;;12.00;9.50;;;;;22.00;48.46;101174.75;5004264;28;45422;-56
2022/10/30 09:27:59;;;;;;;;;11.00;10.00;;;;;22.00;48.52;101174.75;5000063;28;45510;-61
2022/10/30 09:30:25;;;;;;;;;12.25;11.75;;;;;22.02;48.43;101189.59;4998112;28;45510;-58
2022/10/30 09:32:55;;;;;;;;;12.50;11.50;;;;;22.04;48.20;101184.22;4996423;28;46210;-57
2022/10/30 09:35:20;;;;;;;;;9.75;9.75;;;;;22.02;48.39;101180.81;4996336;28;45273;-59
2022/10/30 09:37:46;;;;;;;;;7.00;7.00;;;;;22.03;48.30;101188.66;5004570;28;45387;-58
2022/10/30 09:40:34;;;;;;;;;9.75;8.75;;;;;22.05;48.23;101185.91;5003312;28;45265;-56
2022/10/30 09:43:09;;;;;;;;;11.50;9.00;;;;;22.08;48.20;101181.31;4998798;28;46811;-57
2022/10/30 09:46:06;;;;;;;;;9.00;9.00;;;;;22.09;48.14;101188.28;4998919;28;45332;-51
2022/10/30 09:48:53;;;;;;;;;13.00;10.00;;;;;22.11;48.27;101185.56;4982256;28;45520;-53
2022/10/30 09:51:29;;;;;;;;;9.00;8.50;;;;;22.14;48.05;101195.13;5002355;28;45415;-55
2022/10/30 09:54:35;;;;;;;;;12.25;10.75;;;;;22.13;48.01;101199.53;5000722;28;48386;-53
2022/10/30 09:57:38;;;;;;;;;8.50;7.50;;;;;22.14;48.00;101193.31;4994583;28;45892;-54
2022/10/30 10:00:10;;;;;;;;;10.50;10.25;;;;;22.15;47.98;101194.19;5006238;28;45401;-58
2022/10/30 10:02:42;;;;;;;;;12.25;10.50;;;;;22.15;47.97;101187.09;5009152;28;45320;-52
2022/10/30 10:05:42;;;;;;;;;11.25;9.25;;;;;22.16;47.86;101193.25;5004147;28;46283;-56
2022/10/30 10:08:15;;;;;;;;;9.75;9.00;;;;;22.17;47.87;101206.34;5002508;28;45341;-54
2022/10/30 10:10:47;;;;;;;;;12.50;9.75;;;;;22.18;47.57;101200.13;5001082;28;45273;-59
2022/10/30 10:14:07;;;;;;;;;8.25;8.00;;;;;22.17;47.69;101198.44;5000434;28;45419;-56
2022/10/30 10:16:37;;;;;;;;;11.00;10.00;;;;;22.18;47.71;101201.91;4985503;28;46210;-58
2022/10/30 10:19:18;;;;;;;;;12.00;10.00;;;;;22.17;48.01;101201.06;5000011;28;45352;-55
2022/10/30 10:21:57;;;;;;;;;12.00;8.75;;;;;22.20;47.64;101194.75;5011064;28;45461;-55
2022/10/30 10:24:29;;;;;;;;;9.00;8.00;;;;;22.20;47.79;101192.97;5004026;28;45218;-58
2022/10/30 10:27:36;;;;;;;;;11.00;9.75;;;;;22.21;47.52;101183.25;5000211;28;45323;-56
2022/10/30 10:30:17;;;;;;;;;11.25;10.25;;;;;22.20;47.72;101185.06;4978718;28;45794;-56
2022/10/30 10:33:22;;;;;;;;;10.00;8.25;;;;;22.20;47.52;101190.34;4998838;28;45374;-56
2022/10/30 10:36:19;;;;;;;;;10.75;9.50;;;;;22.21;47.56;101188.53;4999036;28;45305;-56
2022/10/30 10:38:53;;;;;;;;;9.50;8.00;;;;;22.21;47.52;101186.72;4996889;28;45600;-56
2022/10/30 10:41:56;;;;;;;;;9.25;8.75;;;;;22.23;47.71;101186.66;5006601;28;45375;-54
2022/10/30 10:45:08;;;;;;;;;8.50;8.50;;;;;22.23;47.48;101205.97;5000189;28;45517;-56
2022/10/30 10:47:49;;;;;;;;;13.50;10.50;;;;;22.22;47.65;101212.19;4999751;28;45400;-54
2022/10/30 10:50:27;;;;;;;;;8.00;8.00;;;;;22.23;47.72;101221.81;4999589;28;46407;-56
2022/10/30 10:53:00;;;;;;;;;9.00;9.00;;;;;22.24;47.71;101234.09;4999473;28;45778;-56
2022/10/30 10:55:35;;;;;;;;;9.25;8.25;;;;;22.27;47.46;101240.97;4999682;28;45451;-57
2022/10/30 10:58:26;;;;;;;;;10.00;9.50;;;;;22.27;47.51;101243.63;4998677;28;45577;-51
2022/10/30 11:00:53;;;;;;;;;10.50;8.00;;;;;22.28;47.50;101239.22;4999112;28;46373;-51
2022/10/30 11:03:24;;;;;;;;;6.50;6.00;;;;;22.29;47.38;101227.72;4999083;28;45925;-54
2022/10/30 11:05:54;;;;;;;;;9.50;9.25;;;;;22.28;47.59;101231.28;4999129;28;45390;-52
2022/10/30 11:08:28;;;;;;;;;7.50;6.25;;;;;22.28;47.56;101228.66;4999991;28;45586;-56
2022/10/30 11:11:05;;;;;;;;;9.25;9.25;;;;;22.28;47.44;101242.69;4998646;28;46422;-53
2022/10/30 11:13:34;;;;;;;;;13.00;9.75;;;;;22.29;47.47;101247.03;4999786;28;45407;-48
2022/10/30 11:16:28;;;;;;;;;10.75;9.00;;;;;22.30;47.13;101254.00;5002588;28;45340;-55
2022/10/30 11:18:59;;;;;;;;;13.00;10.00;;;;;22.32;47.47;101261.88;5001477;28;45645;-57
2022/10/30 11:21:26;;;;;;;;;10.50;10.25;;;;;22.32;47.43;101259.22;5000655;28;46255;-49
2022/10/30 11:23:54;;;;;;;;;10.50;9.00;;;;;22.34;47.53;101247.63;4999980;28;45911;-50
2022/10/30 11:26:20;;;;;;;;;8.50;7.50;;;;;22.35;47.50;101237.91;4999764;28;45415;-58
2022/10/30 11:28:54;;;;;;;;;11.50;10.25;;;;;22.35;47.44;101230.00;4999447;28;45502;-51